Time;durP1;ratioP1;P1;durP2;ratioP2;P2;SDS_P1;SDS_P2;PMS_P1;PMS_P2;Temp;Humidity;BMP_temperature;BMP_pressure;BME280_temperature;BME280_humidity;BME280_pressure;Samples;Min_cycle;Max_cycle;Signal;HPM_P1;HPM_P2
2022/05/16 00:00:45;;;;;;;5.4;4.3;;;;;;;18.38;75.93262;938.5215;;;;
2022/05/16 00:03:09;;;;;;;6.4;4.5;;;;;;;18.4;75.65723;938.5334;;;;
2022/05/16 00:05:35;;;;;;;5.1;4.5;;;;;;;18.45;77.41016;938.5602;;;;
2022/05/16 00:08:02;;;;;;;4.9;4.2;;;;;;;18.39;77.66602;938.5118;;;;
2022/05/16 00:10:28;;;;;;;5.6;4.5;;;;;;;18.29;76.04492;938.5467;;;;
2022/05/16 00:13:01;;;;;;;6.4;4.4;;;;;;;18.23;76.02441;938.5173;;;;
2022/05/16 00:15:45;;;;;;;6.1;4.6;;;;;;;18.13;76.85352;938.6964;;;;
2022/05/16 00:18:15;;;;;;;4.9;4.4;;;;;;;18.01;76.20605;938.6758;;;;
2022/05/16 00:20:44;;;;;;;6.5;4.7;;;;;;;17.84;78.2207;938.7183;;;;
2022/05/16 00:23:16;;;;;;;5;4.5;;;;;;;17.89;78.80859;938.6949;;;;
2022/05/16 00:25:56;;;;;;;5.2;4.7;;;;;;;17.84;80.68066;938.6965;;;;
2022/05/16 00:28:28;;;;;;;9.2;5;;;;;;;17.86;80.77832;938.6503;;;;
2022/05/16 00:30:53;;;;;;;5.3;4.7;;;;;;;17.79;80.73047;938.7028;;;;
2022/05/16 00:33:18;;;;;;;5.1;4.3;;;;;;;17.81;80.94141;938.7976;;;;
2022/05/16 00:36:02;;;;;;;7.4;5.3;;;;;;;17.76;80.74707;938.7952;;;;
2022/05/16 00:38:40;;;;;;;5.8;5.1;;;;;;;17.68;80.76855;938.8384;;;;
2022/05/16 00:41:08;;;;;;;6.3;5.3;;;;;;;17.4;81.33008;938.8736;;;;
2022/05/16 00:43:41;;;;;;;7.5;5.1;;;;;;;17.14;83.58887;938.8506;;;;
2022/05/16 00:46:08;;;;;;;7;5.1;;;;;;;17.33;83.53418;938.8407;;;;
2022/05/16 00:48:36;;;;;;;5.9;5.1;;;;;;;17.5;83.11426;938.8061;;;;
2022/05/16 00:51:01;;;;;;;7;5.3;;;;;;;17.57;82.99805;938.793;;;;
2022/05/16 00:53:26;;;;;;;6.6;5.2;;;;;;;17.64;83.2793;938.8049;;;;
2022/05/16 00:55:52;;;;;;;7.4;5.1;;;;;;;17.69;83.07813;938.7811;;;;
2022/05/16 00:58:17;;;;;;;6.4;5.3;;;;;;;17.75;83.10254;938.7898;;;;
2022/05/16 01:00:52;;;;;;;6.3;5.2;;;;;;;17.82;83.56836;938.8113;;;;
2022/05/16 01:05:54;;;;;;;5.7;4.9;;;;;;;17.79;83.92285;938.8857;;;;
2022/05/16 01:08:25;;;;;;;8;5.4;;;;;;;17.6;85.30078;938.8747;;;;
2022/05/16 01:10:57;;;;;;;7.7;5.1;;;;;;;17.43;86.05664;938.9539;;;;
2022/05/16 01:13:30;;;;;;;8.6;4.9;;;;;;;17.51;85.87695;939.075;;;;
2022/05/16 01:15:58;;;;;;;5.3;4.8;;;;;;;17.5;85.49219;939.0428;;;;
2022/05/16 01:18:24;;;;;;;7.4;4.9;;;;;;;17.5;85.57324;939.1089;;;;
2022/05/16 01:21:00;;;;;;;7.6;5.2;;;;;;;17.52;85.51758;939.0483;;;;
2022/05/16 01:23:28;;;;;;;7.3;5.3;;;;;;;17.48;85.92969;939.0367;;;;
2022/05/16 01:25:58;;;;;;;6.3;5.4;;;;;;;17.45;86.375;939.0711;;;;
2022/05/16 01:28:27;;;;;;;6.8;5.7;;;;;;;17.45;86.45605;939.0936;;;;
2022/05/16 01:30:54;;;;;;;6.8;5.4;;;;;;;17.5;86.87305;939.1451;;;;
2022/05/16 01:33:20;;;;;;;5.7;5.1;;;;;;;17.54;87.05371;939.1445;;;;
2022/05/16 01:35:54;;;;;;;6.5;5.3;;;;;;;17.57;86.6084;939.2188;;;;
2022/05/16 01:38:22;;;;;;;7.2;5.5;;;;;;;17.63;86.07422;939.2449;;;;
2022/05/16 01:40:47;;;;;;;7;5.1;;;;;;;17.54;87.07715;939.3024;;;;
2022/05/16 01:43:25;;;;;;;9.4;5.6;;;;;;;17.33;87.88281;939.265;;;;
2022/05/16 01:45:54;;;;;;;4.9;4.4;;;;;;;16.9;88.75781;939.2947;;;;
2022/05/16 01:48:30;;;;;;;5.2;4.6;;;;;;;16.99;87.73438;939.2314;;;;
2022/05/16 01:50:56;;;;;;;7.9;5.4;;;;;;;17.15;87.83496;939.2737;;;;
2022/05/16 01:53:25;;;;;;;7.4;5.3;;;;;;;17.25;87.92676;939.3265;;;;
2022/05/16 01:56:00;;;;;;;6.4;4.7;;;;;;;17.27;87.49707;939.3318;;;;
2022/05/16 01:58:25;;;;;;;5.9;5;;;;;;;17.4;86.75879;939.3461;;;;
2022/05/16 02:00:56;;;;;;;8.2;5;;;;;;;17.43;86.5918;939.3797;;;;
2022/05/16 02:03:25;;;;;;;5.7;4.7;;;;;;;17.36;87.43555;939.4103;;;;
2022/05/16 02:05:54;;;;;;;6.4;4.9;;;;;;;17.28;88.03418;939.3978;;;;
2022/05/16 02:08:25;;;;;;;6;5.1;;;;;;;17.25;88.50195;939.4642;;;;
2022/05/16 02:10:53;;;;;;;5.7;5.1;;;;;;;17.26;88.99316;939.5123;;;;
2022/05/16 02:13:18;;;;;;;6.7;5.2;;;;;;;17.26;89.0166;939.4891;;;;
2022/05/16 02:15:44;;;;;;;6.4;4.9;;;;;;;17.08;90.02246;939.5009;;;;
2022/05/16 02:18:19;;;;;;;7.1;5.5;;;;;;;17;91.31543;939.5531;;;;
2022/05/16 02:20:50;;;;;;;7.3;5.3;;;;;;;17.13;91.22754;939.5421;;;;
2022/05/16 02:25:46;;;;;;;7.3;5.7;;;;;;;16.87;93.38574;939.4832;;;;
2022/05/16 02:28:16;;;;;;;7;5.7;;;;;;;16.93;94.74219;939.5837;;;;
2022/05/16 02:30:46;;;;;;;9.4;5.7;;;;;;;17.05;94.3291;939.6557;;;;
2022/05/16 02:33:18;;;;;;;8.1;6.1;;;;;;;17.08;93.73145;939.7213;;;;
2022/05/16 02:35:54;;;;;;;8.1;6;;;;;;;17.03;94.23242;939.7075;;;;
2022/05/16 02:38:25;;;;;;;7.9;6.1;;;;;;;17.05;94.71094;939.7708;;;;
2022/05/16 02:40:58;;;;;;;8.2;6.2;;;;;;;17.18;94.59961;939.7618;;;;
2022/05/16 02:43:23;;;;;;;7.9;6.1;;;;;;;17.19;93.82422;939.5645;;;;
2022/05/16 02:45:56;;;;;;;7.4;5.7;;;;;;;17.21;93.44531;939.5489;;;;
2022/05/16 02:48:27;;;;;;;10.1;6.2;;;;;;;17.27;93.29492;939.6121;;;;
2022/05/16 02:50:54;;;;;;;8.6;6.1;;;;;;;17.31;93.94238;939.6219;;;;
2022/05/16 02:53:20;;;;;;;9.2;6.4;;;;;;;17.05;96.08789;939.6284;;;;
2022/05/16 02:55:55;;;;;;;7.4;6;;;;;;;16.81;96.53711;939.6525;;;;
2022/05/16 02:58:21;;;;;;;11.2;6.6;;;;;;;16.8;97.13574;939.6069;;;;
2022/05/16 03:00:46;;;;;;;7.6;6.4;;;;;;;16.74;97.11133;939.5641;;;;
2022/05/16 03:03:14;;;;;;;9;6.3;;;;;;;16.71;96.94141;939.5211;;;;
2022/05/16 03:05:41;;;;;;;8.3;6.2;;;;;;;16.78;96.43652;939.4543;;;;
2022/05/16 03:08:10;;;;;;;6.5;5.8;;;;;;;16.86;94.94824;939.4263;;;;
2022/05/16 03:10:36;;;;;;;9.4;6.6;;;;;;;16.84;94.87305;939.4965;;;;
2022/05/16 03:13:01;;;;;;;8.6;6.5;;;;;;;16.83;95.59082;939.503;;;;
2022/05/16 03:15:29;;;;;;;7.8;5.9;;;;;;;16.77;95.58887;939.4504;;;;
2022/05/16 03:18:00;;;;;;;7.1;5.9;;;;;;;16.57;96.73828;939.4072;;;;
2022/05/16 03:20:27;;;;;;;8.1;5.8;;;;;;;16.62;97.01465;939.2774;;;;
2022/05/16 03:22:57;;;;;;;8.3;5.5;;;;;;;16.55;96.09766;939.3897;;;;
2022/05/16 03:25:28;;;;;;;6.8;5.3;;;;;;;16.62;95.72949;939.4391;;;;
2022/05/16 03:27:55;;;;;;;7.1;5;;;;;;;16.56;95.71484;939.3712;;;;
2022/05/16 03:30:31;;;;;;;6.4;5.4;;;;;;;16.51;95.69336;939.436;;;;
2022/05/16 03:32:58;;;;;;;9;6;;;;;;;16.47;95.6377;939.4558;;;;
2022/05/16 03:35:36;;;;;;;6.2;5.3;;;;;;;16.37;95.70898;939.3931;;;;
2022/05/16 03:38:06;;;;;;;7.2;4.6;;;;;;;16.5;95.44727;939.4836;;;;
2022/05/16 03:40:47;;;;;;;6.4;5;;;;;;;16.49;94.86816;939.4636;;;;
2022/05/16 03:43:01;;;;;;;6.7;4.7;;;;;;;16.47;95.55664;939.4952;;;;
2022/05/16 03:45:31;;;;;;;7.1;5.2;;;;;;;16.47;95.51074;939.5105;;;;
2022/05/16 03:47:57;;;;;;;7.8;5.3;;;;;;;16.54;95.63184;939.5715;;;;
2022/05/16 03:50:29;;;;;;;7.9;5.1;;;;;;;16.6;94.80859;939.5797;;;;
2022/05/16 03:52:58;;;;;;;8.4;5.3;;;;;;;16.46;94.7002;939.566;;;;
2022/05/16 03:55:20;;;;;;;7.2;5.2;;;;;;;16.57;94.80273;939.601;;;;
2022/05/16 03:57:52;;;;;;;5.5;4.8;;;;;;;16.66;94.56934;939.6005;;;;
2022/05/16 04:02:40;;;;;;;6.8;4.8;;;;;;;16.65;94.3916;939.5545;;;;
2022/05/16 04:05:11;;;;;;;6.9;4.7;;;;;;;16.59;94.50781;939.603;;;;
2022/05/16 04:07:45;;;;;;;7.3;5;;;;;;;16.58;94.36426;939.4858;;;;
2022/05/16 04:10:10;;;;;;;6.8;5;;;;;;;16.49;95.30762;939.5385;;;;
2022/05/16 04:12:46;;;;;;;7.5;4.7;;;;;;;16.49;94.86621;939.6373;;;;
2022/05/16 04:15:15;;;;;;;6.6;4.8;;;;;;;16.44;95.07617;939.6121;;;;
2022/05/16 04:17:51;;;;;;;6.6;5.1;;;;;;;16.51;94.39746;939.6708;;;;
2022/05/16 04:20:21;;;;;;;8.5;5.4;;;;;;;16.54;93.82617;939.6672;;;;
2022/05/16 04:22:49;;;;;;;7;5.5;;;;;;;16.47;93.77441;939.6841;;;;
2022/05/16 04:25:16;;;;;;;9.7;5.5;;;;;;;16.5;94.14063;939.6636;;;;
2022/05/16 04:27:50;;;;;;;6.2;5.3;;;;;;;16.56;93.72363;939.618;;;;
2022/05/16 04:30:20;;;;;;;8.3;5.2;;;;;;;16.48;94.12305;939.6398;;;;
2022/05/16 04:32:53;;;;;;;8;5.4;;;;;;;16.49;94.30078;939.6613;;;;
2022/05/16 04:35:29;;;;;;;7;5.2;;;;;;;16.44;94.42773;939.6386;;;;
2022/05/16 04:37:56;;;;;;;7.1;4.9;;;;;;;16.47;93.7627;939.6181;;;;
2022/05/16 04:40:26;;;;;;;6.4;5.1;;;;;;;16.47;93.3457;939.6912;;;;
2022/05/16 04:43:00;;;;;;;7.2;5.3;;;;;;;16.46;93.7168;939.7042;;;;
2022/05/16 04:45:28;;;;;;;7.6;5;;;;;;;16.35;94.47656;939.6987;;;;
2022/05/16 04:47:58;;;;;;;6.6;4.5;;;;;;;16.1;92.64453;939.7073;;;;
2022/05/16 04:50:33;;;;;;;5.9;4.6;;;;;;;16.26;94.42578;939.6803;;;;
2022/05/16 04:53:03;;;;;;;7.2;5.2;;;;;;;16.38;94.25488;939.6397;;;;
2022/05/16 04:55:40;;;;;;;6.3;5.1;;;;;;;16.57;93.56543;939.6418;;;;
2022/05/16 04:58:05;;;;;;;5.6;4.4;;;;;;;16.45;93.75879;939.62;;;;
2022/05/16 05:00:41;;;;;;;5.5;4.6;;;;;;;16.51;93.44824;939.6877;;;;
2022/05/16 05:03:21;;;;;;;5.8;4.7;;;;;;;16.4;93.44824;939.6668;;;;
2022/05/16 05:06:01;;;;;;;6.5;4.7;;;;;;;16.15;94.65527;939.6442;;;;
2022/05/16 05:08:36;;;;;;;5;4.3;;;;;;;16.3;94.08691;939.6655;;;;
2022/05/16 05:15:59;;;;;;;6.3;5;;;;;;;16.66;92.7627;939.6799;;;;
2022/05/16 05:18:31;;;;;;;11;6.8;;;;;;;17.43;89.1416;939.6978;;;;
2022/05/16 05:20:56;;;;;;;12.3;7;;;;;;;18.44;84.87109;939.7014;;;;
2022/05/16 05:23:26;;;;;;;7.6;4.8;;;;;;;18.73;81.79883;939.6915;;;;
2022/05/16 05:25:58;;;;;;;5.7;4.1;;;;;;;18.82;80.18652;939.7181;;;;
2022/05/16 05:28:23;;;;;;;5.3;3.7;;;;;;;18.79;80.93652;939.6807;;;;
2022/05/16 05:30:48;;;;;;;7.6;4;;;;;;;19.3;79.6084;939.6595;;;;
2022/05/16 05:33:15;;;;;;;4.4;3.3;;;;;;;20.61;74.70508;939.6016;;;;
2022/05/16 05:35:47;;;;;;;4.4;3.1;;;;;;;21.97;68.1377;939.6006;;;;
2022/05/16 05:38:20;;;;;;;4;2.9;;;;;;;22.99;65.4873;939.6423;;;;
2022/05/16 05:40:45;;;;;;;4.2;2.8;;;;;;;22.25;65.60059;939.5981;;;;
2022/05/16 05:43:16;;;;;;;4.3;2.5;;;;;;;23.52;62.70605;939.595;;;;
2022/05/16 05:45:41;;;;;;;5.7;2.9;;;;;;;24.06;60.93359;939.5731;;;;
2022/05/16 05:48:09;;;;;;;3.9;3.2;;;;;;;23.05;60.87891;939.551;;;;
2022/05/16 05:50:35;;;;;;;4.2;2.6;;;;;;;23.35;61.6709;939.5695;;;;
2022/05/16 05:53:01;;;;;;;2.8;2.4;;;;;;;23.24;60.6582;939.5322;;;;
2022/05/16 05:55:28;;;;;;;3.3;2.8;;;;;;;22.77;61.87402;939.4628;;;;
2022/05/16 05:57:53;;;;;;;4;2.7;;;;;;;23.42;60.94043;939.4533;;;;
2022/05/16 06:00:19;;;;;;;3.8;3.1;;;;;;;22.98;63.42969;939.4713;;;;
2022/05/16 06:02:50;;;;;;;4;3;;;;;;;24.2;60.25781;939.3633;;;;
2022/05/16 06:05:24;;;;;;;3.2;2.6;;;;;;;25.53;55.83105;939.4205;;;;
2022/05/16 06:07:56;;;;;;;4.5;2.7;;;;;;;23.34;61.18945;939.4267;;;;
2022/05/16 06:10:21;;;;;;;5.6;2.8;;;;;;;22.2;65.83887;939.443;;;;
2022/05/16 06:12:50;;;;;;;4.8;3;;;;;;;21.2;68.47656;939.4327;;;;
2022/05/16 06:15:20;;;;;;;6.7;3.1;;;;;;;20.64;71.84863;939.4391;;;;
2022/05/16 06:17:50;;;;;;;6.5;3.9;;;;;;;20.1;75.75;939.4669;;;;
2022/05/16 06:20:17;;;;;;;4.5;3.4;;;;;;;20.57;75.18848;939.4869;;;;
2022/05/16 06:22:48;;;;;;;4.8;3.4;;;;;;;22.29;68.58496;939.5139;;;;
2022/05/16 06:25:34;;;;;;;3.8;2.8;;;;;;;23.13;65.30762;939.541;;;;
2022/05/16 06:27:47;;;;;;;5.7;2.8;;;;;;;22.58;65.84863;939.5189;;;;
2022/05/16 06:30:13;;;;;;;5.7;2.7;;;;;;;23.68;61.82324;939.5579;;;;
2022/05/16 06:32:41;;;;;;;3.6;2.9;;;;;;;23.63;63.99316;939.5806;;;;
2022/05/16 06:35:18;;;;;;;5.3;3.1;;;;;;;23.61;62.28223;939.5627;;;;
2022/05/16 06:37:45;;;;;;;5.4;2.9;;;;;;;23.04;63.06152;939.6286;;;;
2022/05/16 06:40:18;;;;;;;6.8;3.1;;;;;;;22.45;67.00293;939.5722;;;;
2022/05/16 06:42:44;;;;;;;6.1;3.2;;;;;;;21.71;67.41797;939.5811;;;;
2022/05/16 06:45:11;;;;;;;6.4;3.1;;;;;;;20.78;72.80566;939.6465;;;;
2022/05/16 06:47:36;;;;;;;5.9;3.5;;;;;;;20.42;74.13574;939.6478;;;;
2022/05/16 06:50:09;;;;;;;3.8;2.8;;;;;;;20.41;73.90039;939.6122;;;;
2022/05/16 06:52:34;;;;;;;6.3;3.8;;;;;;;20.63;74.3125;939.7291;;;;
2022/05/16 06:55:05;;;;;;;7.3;3.8;;;;;;;20.93;73.84668;939.7205;;;;
2022/05/16 06:57:38;;;;;;;4.3;3.1;;;;;;;21.08;71.16992;939.6969;;;;
2022/05/16 07:00:10;;;;;;;3.1;2.8;;;;;;;21.3;67.18066;939.6667;;;;
2022/05/16 07:02:44;;;;;;;5.4;2.9;;;;;;;21.39;67.1582;939.7134;;;;
2022/05/16 07:05:18;;;;;;;4.3;2.8;;;;;;;21.41;70.46191;939.6984;;;;
2022/05/16 07:07:51;;;;;;;6.8;3.3;;;;;;;21.45;71.22852;939.7648;;;;
2022/05/16 07:10:19;;;;;;;5.7;3.4;;;;;;;21.49;70.88477;939.8041;;;;
2022/05/16 07:12:44;;;;;;;5.1;3.6;;;;;;;21.22;71.51953;939.7659;;;;
2022/05/16 07:15:20;;;;;;;4.8;3.5;;;;;;;21.16;72.24805;939.8436;;;;
2022/05/16 07:17:48;;;;;;;8.7;5;;;;;;;21.01;73.53125;939.8809;;;;
2022/05/16 07:20:14;;;;;;;10.1;4.9;;;;;;;21.02;74.31738;939.9445;;;;
2022/05/16 07:22:40;;;;;;;4.8;3.1;;;;;;;20.68;75.90723;940.0086;;;;
2022/05/16 07:25:08;;;;;;;4.8;3.3;;;;;;;20.52;77.69238;939.9519;;;;
2022/05/16 07:30:10;;;;;;;6.1;3.6;;;;;;;20.35;79.57715;940.1183;;;;
2022/05/16 07:32:42;;;;;;;6;3.6;;;;;;;20.2;81.60352;940.0999;;;;
2022/05/16 07:35:08;;;;;;;6.5;3.9;;;;;;;20.15;81.8291;940.2249;;;;
2022/05/16 07:37:41;;;;;;;7.1;4.1;;;;;;;20.06;82.23242;940.2908;;;;
2022/05/16 07:40:25;;;;;;;5.7;4;;;;;;;19.99;83.37402;940.323;;;;
2022/05/16 07:42:42;;;;;;;6;3.8;;;;;;;19.95;84.04199;940.3376;;;;
2022/05/16 07:45:20;;;;;;;8.6;4.3;;;;;;;19.95;83.39063;940.4548;;;;
2022/05/16 07:47:46;;;;;;;6.8;3.9;;;;;;;19.94;82.91016;940.5204;;;;
2022/05/16 07:50:11;;;;;;;11.1;3.8;;;;;;;19.74;83.36133;940.5901;;;;
2022/05/16 07:52:37;;;;;;;7.6;4.2;;;;;;;19.64;83.73828;940.6878;;;;
2022/05/16 09:01:16;;;;;;;6.6;3.9;;;;;;;20.47;82.51758;942.0979;;;;
2022/05/16 09:03:50;;;;;;;6.5;4.5;;;;;;;20.61;80.74707;942.1892;;;;
2022/05/16 09:06:25;;;;;;;8.1;4.4;;;;;;;20.96;77.76855;942.1891;;;;
2022/05/16 09:08:53;;;;;;;5.6;3.9;;;;;;;21.48;76.15137;942.1608;;;;
2022/05/16 09:11:21;;;;;;;5.2;3.6;;;;;;;21.98;73.20215;942.1362;;;;
2022/05/16 09:13:51;;;;;;;7.2;3.5;;;;;;;22.9;67.76367;942.1389;;;;
2022/05/16 09:16:21;;;;;;;5.5;3;;;;;;;23.6;63.94141;942.1461;;;;
2022/05/16 09:18:50;;;;;;;5.8;3.3;;;;;;;23.46;65.55469;942.1995;;;;
2022/05/16 09:21:16;;;;;;;3.9;3.1;;;;;;;23.68;64.68262;942.1914;;;;
2022/05/16 09:23:40;;;;;;;3.7;3.1;;;;;;;23.59;62.2334;942.2141;;;;
2022/05/16 09:26:05;;;;;;;4.4;3.2;;;;;;;24.07;62.4668;942.2269;;;;
2022/05/16 09:28:38;;;;;;;8.1;3.7;;;;;;;24.04;63.90918;942.2281;;;;
2022/05/16 09:31:03;;;;;;;6.5;3.4;;;;;;;23.22;63.86328;942.2158;;;;
2022/05/16 09:33:34;;;;;;;4.8;3.6;;;;;;;22.89;64.83691;942.258;;;;
2022/05/16 09:36:00;;;;;;;9.8;5.7;;;;;;;22.25;69.22461;942.2836;;;;
2022/05/16 09:38:26;;;;;;;9.1;4.9;;;;;;;21.34;71.29395;942.3237;;;;
2022/05/16 09:40:52;;;;;;;4.3;3.6;;;;;;;21.47;73.18652;942.294;;;;
2022/05/16 09:43:21;;;;;;;7.2;4.7;;;;;;;21.56;74.30273;942.3669;;;;
2022/05/16 09:45:45;;;;;;;6.2;4;;;;;;;21.34;74.14941;942.2969;;;;
2022/05/16 09:48:15;;;;;;;8.3;4.7;;;;;;;21.13;74.65137;942.3997;;;;
2022/05/16 09:50:47;;;;;;;5.8;4.3;;;;;;;21.15;77.10156;942.4073;;;;
2022/05/16 09:53:14;;;;;;;3.9;3.5;;;;;;;21.06;72.41699;942.4249;;;;
2022/05/16 09:55:38;;;;;;;4.7;3.7;;;;;;;20.83;75.30273;942.4276;;;;
2022/05/16 09:58:05;;;;;;;6.4;3.5;;;;;;;20.26;75.30078;942.3834;;;;
2022/05/16 10:00:38;;;;;;;5.9;3.6;;;;;;;20.03;78.44629;942.3547;;;;
2022/05/16 10:03:05;;;;;;;8.3;3.9;;;;;;;19.94;80.25;942.3942;;;;
2022/05/16 10:05:36;;;;;;;4.9;3.4;;;;;;;20.02;79.28516;942.3945;;;;
2022/05/16 10:08:04;;;;;;;5;3.6;;;;;;;20.14;78.58203;942.3816;;;;
2022/05/16 10:10:34;;;;;;;4;3.4;;;;;;;20.17;79.11133;942.4425;;;;
2022/05/16 10:13:00;;;;;;;5.8;4.3;;;;;;;20.36;78.51758;942.3973;;;;
2022/05/16 10:15:41;;;;;;;6.8;4;;;;;;;20.23;77.24414;942.4131;;;;
2022/05/16 10:18:12;;;;;;;5.4;3.5;;;;;;;20.4;79.16406;942.3878;;;;
2022/05/16 10:20:45;;;;;;;4.4;3.3;;;;;;;20.48;77.89453;942.4156;;;;
2022/05/16 10:23:07;;;;;;;6.1;3.7;;;;;;;20.69;77.72168;942.293;;;;
2022/05/16 10:25:38;;;;;;;5.2;3.8;;;;;;;20.79;75.95117;942.34;;;;
2022/05/16 10:28:09;;;;;;;3.7;3.3;;;;;;;20.8;76.92285;942.2808;;;;
2022/05/16 10:35:34;;;;;;;4.8;3.5;;;;;;;21.37;75.7207;942.255;;;;
2022/05/16 10:38:07;;;;;;;3.8;3.4;;;;;;;21.51;74.46973;942.1941;;;;
2022/05/16 10:40:38;;;;;;;6.6;3.4;;;;;;;20.99;74.97949;942.2059;;;;
2022/05/16 10:43:03;;;;;;;4.1;3.5;;;;;;;20.87;78.22168;942.1953;;;;
2022/05/16 10:45:32;;;;;;;4;3.4;;;;;;;20.67;79.59863;942.1026;;;;
2022/05/16 10:48:06;;;;;;;3.8;3.4;;;;;;;20.6;75.34473;942.0561;;;;
2022/05/16 10:50:34;;;;;;;6;3.9;;;;;;;20.77;75.52539;942.1423;;;;
2022/05/16 10:52:59;;;;;;;5;3;;;;;;;20.47;76.49219;942.1285;;;;
2022/05/16 10:55:31;;;;;;;5.8;3.9;;;;;;;20.77;77.11523;942.1099;;;;
2022/05/16 10:58:19;;;;;;;5.1;3.3;;;;;;;20.57;77.01074;942.1046;;;;
2022/05/16 11:00:44;;;;;;;7.5;3.6;;;;;;;20.79;78.5459;942.1013;;;;
2022/05/16 11:03:15;;;;;;;6.5;3.4;;;;;;;20.98;75.95996;942.0444;;;;
2022/05/16 11:05:45;;;;;;;4.8;3;;;;;;;21;74.94629;942.1467;;;;
2022/05/16 11:08:14;;;;;;;6.1;3.3;;;;;;;20.68;77.04297;942.1233;;;;
2022/05/16 11:10:45;;;;;;;5.4;3.6;;;;;;;20.72;78.08887;942.0576;;;;
2022/05/16 11:13:09;;;;;;;5.9;3.5;;;;;;;20.94;76.41992;942.017;;;;
2022/05/16 11:15:38;;;;;;;9.4;3.2;;;;;;;21.24;74.2373;941.9796;;;;
2022/05/16 11:18:04;;;;;;;4;3.1;;;;;;;21.22;74.66699;941.9333;;;;
2022/05/16 11:20:35;;;;;;;4.4;2.9;;;;;;;21.11;71.72461;941.8494;;;;
2022/05/16 11:23:05;;;;;;;4.1;2.9;;;;;;;21.15;73.89551;941.8372;;;;
2022/05/16 11:25:34;;;;;;;6.2;3.5;;;;;;;21.16;74.03809;941.8003;;;;
2022/05/16 11:28:07;;;;;;;4.8;2.9;;;;;;;21.32;72.55371;941.7921;;;;
2022/05/16 11:30:36;;;;;;;3.4;3.1;;;;;;;21.38;74.26074;941.7563;;;;
2022/05/16 11:33:09;;;;;;;5.4;3.2;;;;;;;21.64;75.10156;941.6567;;;;
2022/05/16 11:35:38;;;;;;;4.3;2.9;;;;;;;21.45;73.0791;941.6753;;;;
2022/05/16 11:38:33;;;;;;;3.3;3;;;;;;;21.31;76.25;941.6139;;;;
2022/05/16 11:41:02;;;;;;;3.9;2.8;;;;;;;21.15;76.3291;941.4994;;;;
2022/05/16 11:43:36;;;;;;;3.4;2.9;;;;;;;21.31;78.83594;941.4383;;;;
2022/05/16 11:46:05;;;;;;;4.7;2.9;;;;;;;21.37;76.96289;941.3645;;;;
2022/05/16 11:48:32;;;;;;;3.5;2.8;;;;;;;21.37;74.02539;941.2689;;;;
2022/05/16 11:51:04;;;;;;;4.3;3;;;;;;;21.73;74.91797;941.235;;;;
2022/05/16 11:53:29;;;;;;;5.3;3.3;;;;;;;21.44;75.62793;941.2106;;;;
2022/05/16 12:00:46;;;;;;;3.7;2.6;;;;;;;21.38;75.36328;941.0886;;;;
2022/05/16 12:03:19;;;;;;;2.5;2.3;;;;;;;21.17;71.62891;941.0444;;;;
2022/05/16 12:05:48;;;;;;;2.8;2.2;;;;;;;21.34;73.22363;941.0705;;;;
2022/05/16 12:08:17;;;;;;;2.2;2;;;;;;;21.4;70.47168;941.0914;;;;
2022/05/16 12:10:45;;;;;;;3.3;2.4;;;;;;;21.35;72.33887;941.057;;;;
2022/05/16 12:13:12;;;;;;;3.1;2.2;;;;;;;21.61;72.18066;940.9933;;;;
2022/05/16 12:15:43;;;;;;;4.3;2.7;;;;;;;21.55;68.8584;940.9391;;;;
2022/05/16 12:18:08;;;;;;;4.9;2.6;;;;;;;21.67;71.20605;940.9783;;;;
2022/05/16 12:21:13;;;;;;;5.3;2.4;;;;;;;22.01;66.70215;940.9229;;;;
2022/05/16 12:23:46;;;;;;;4.8;2.4;;;;;;;22.14;68.30469;940.8684;;;;
2022/05/16 12:26:15;;;;;;;2.2;2;;;;;;;22.58;67.1748;940.7266;;;;
2022/05/16 12:28:46;;;;;;;2.6;2.1;;;;;;;22.75;66.34375;940.7644;;;;
2022/05/16 12:31:13;;;;;;;2.3;2;;;;;;;23.2;65.77441;940.7564;;;;
2022/05/16 12:33:38;;;;;;;3.9;2.1;;;;;;;23.73;59.6416;940.7;;;;
2022/05/16 12:36:07;;;;;;;2.3;2;;;;;;;23.46;57.84082;940.5867;;;;
2022/05/16 12:38:37;;;;;;;3.3;2.3;;;;;;;23.41;65.26563;940.6206;;;;
2022/05/16 12:41:06;;;;;;;3.6;2.6;;;;;;;23.41;66.68848;940.5686;;;;
2022/05/16 12:43:37;;;;;;;3;2.2;;;;;;;23.73;66.23145;940.5209;;;;
2022/05/16 12:46:07;;;;;;;3.2;1.8;;;;;;;23.78;59.57813;940.5256;;;;
2022/05/16 12:48:33;;;;;;;2;1.6;;;;;;;23.58;56.64551;940.5019;;;;
2022/05/16 12:50:58;;;;;;;4.1;2.1;;;;;;;23.62;62.4043;940.467;;;;
2022/05/16 12:54:00;;;;;;;2.5;2.2;;;;;;;23.85;61.13965;940.3998;;;;
2022/05/16 12:56:25;;;;;;;3;2.1;;;;;;;23.64;58.79395;940.3652;;;;
2022/05/16 12:58:55;;;;;;;3.8;2;;;;;;;24.04;61.17871;940.3038;;;;
2022/05/16 13:01:27;;;;;;;2.4;2.1;;;;;;;24.45;62.91992;940.2068;;;;
2022/05/16 13:03:53;;;;;;;3;1.8;;;;;;;24.41;56.31543;940.1504;;;;
2022/05/16 13:06:20;;;;;;;4.3;2;;;;;;;24.4;56.2793;940.062;;;;
2022/05/16 13:08:45;;;;;;;3.7;2.1;;;;;;;24.47;56.31055;940.139;;;;
2022/05/16 13:11:13;;;;;;;4.7;1.9;;;;;;;24.47;55.67383;940.1099;;;;
2022/05/16 13:13:39;;;;;;;1.9;1.7;;;;;;;24.17;53.77637;940.0723;;;;
2022/05/16 13:16:06;;;;;;;3.6;2.1;;;;;;;24.43;53.60742;939.9984;;;;
2022/05/16 13:18:36;;;;;;;3.9;1.9;;;;;;;24.64;53.85742;939.9451;;;;
2022/05/16 13:21:04;;;;;;;3.9;2;;;;;;;24.97;57.33008;939.9889;;;;
2022/05/16 13:23:30;;;;;;;3.3;1.9;;;;;;;24.83;53.21875;939.9341;;;;
2022/05/16 13:30:45;;;;;;;2.5;1.9;;;;;;;25.7;49.93164;939.8167;;;;
2022/05/16 13:33:15;;;;;;;4.1;1.9;;;;;;;26.07;48.4707;939.7453;;;;
2022/05/16 13:35:49;;;;;;;3.6;1.9;;;;;;;26.1;45.23242;939.7445;;;;
2022/05/16 13:38:21;;;;;;;3.3;2.1;;;;;;;25.89;50.59082;939.6945;;;;
2022/05/16 13:40:48;;;;;;;2.8;1.9;;;;;;;25.75;48.60059;939.698;;;;
2022/05/16 13:43:14;;;;;;;2.4;1.8;;;;;;;25.82;47.13086;939.6284;;;;
2022/05/16 13:45:42;;;;;;;3.4;1.9;;;;;;;26.02;47.37695;939.6241;;;;
2022/05/16 13:48:10;;;;;;;2.9;1.9;;;;;;;25.82;50.25195;939.5795;;;;
2022/05/16 13:50:36;;;;;;;3.4;1.9;;;;;;;26.04;51.47168;939.5676;;;;
2022/05/16 13:53:03;;;;;;;2;1.9;;;;;;;25.83;53.90527;939.5767;;;;
2022/05/16 13:55:31;;;;;;;4.3;2.3;;;;;;;26.08;54.08887;939.5228;;;;
2022/05/16 13:57:56;;;;;;;5.4;2.4;;;;;;;26.13;53.68164;939.5463;;;;
2022/05/16 14:00:25;;;;;;;4.7;2;;;;;;;26.11;54.01074;939.5162;;;;
2022/05/16 14:02:49;;;;;;;3.6;1.9;;;;;;;25.84;55.29004;939.4339;;;;
2022/05/16 14:05:25;;;;;;;4.4;2.4;;;;;;;25.87;52.70508;939.4459;;;;
2022/05/16 14:07:53;;;;;;;7.7;2.9;;;;;;;25.6;54.26758;939.4286;;;;
2022/05/16 14:10:23;;;;;;;4.9;2.5;;;;;;;25.67;55.39844;939.3801;;;;
2022/05/16 14:12:53;;;;;;;3.8;2.1;;;;;;;25.4;57.4082;939.3309;;;;
2022/05/16 14:15:19;;;;;;;2.5;1.9;;;;;;;25.62;55.28516;939.3608;;;;
2022/05/16 14:17:48;;;;;;;3.8;2.3;;;;;;;25.85;52.69043;939.3067;;;;
2022/05/16 14:20:18;;;;;;;4.3;2.5;;;;;;;25.8;52.0459;939.2527;;;;
2022/05/16 14:22:48;;;;;;;5.2;2;;;;;;;25.76;53.02344;939.2438;;;;
2022/05/16 14:25:15;;;;;;;3.4;2.2;;;;;;;25.82;48.95117;939.2065;;;;
2022/05/16 14:27:46;;;;;;;3;1.9;;;;;;;25.6;49.95605;939.2604;;;;
2022/05/16 14:30:18;;;;;;;4.2;2.2;;;;;;;25.77;52.17188;939.17;;;;
2022/05/16 14:32:50;;;;;;;3.5;2;;;;;;;25.65;50.37305;939.1935;;;;
2022/05/16 14:35:20;;;;;;;3.7;2.2;;;;;;;25.45;54.30859;939.1599;;;;
2022/05/16 14:37:46;;;;;;;4.2;2;;;;;;;25.62;53.63281;939.1462;;;;
2022/05/16 14:40:16;;;;;;;3.3;2;;;;;;;25.42;54.51855;939.1741;;;;
2022/05/16 14:42:44;;;;;;;3.8;2.1;;;;;;;25.36;53.89648;939.1616;;;;
2022/05/16 14:45:06;;;;;;;5.4;2.3;;;;;;;25.35;54.37891;939.197;;;;
2022/05/16 14:47:40;;;;;;;4.2;2.3;;;;;;;25.45;54.13184;939.2131;;;;
2022/05/16 14:50:03;;;;;;;2.4;2.1;;;;;;;25.4;54.45703;939.2402;;;;
2022/05/16 14:52:36;;;;;;;3.7;2.3;;;;;;;25.14;56.37207;939.1678;;;;
2022/05/16 14:55:02;;;;;;;3.3;2.3;;;;;;;25.06;58.65039;939.2402;;;;
2022/05/16 14:57:31;;;;;;;5.6;2.6;;;;;;;24.84;59.82617;939.3323;;;;
2022/05/16 15:00:02;;;;;;;4.8;2.4;;;;;;;24.8;58.01563;939.3428;;;;
2022/05/16 15:04:59;;;;;;;4.7;2.6;;;;;;;24.55;62.79395;939.5153;;;;
2022/05/16 15:07:33;;;;;;;9.1;3.6;;;;;;;24.21;65.00684;939.5823;;;;
2022/05/16 15:10:07;;;;;;;3.6;2.9;;;;;;;23.15;60.25684;939.5491;;;;
2022/05/16 15:12:37;;;;;;;4.3;2.7;;;;;;;22.25;60.56836;939.5941;;;;
2022/05/16 15:15:02;;;;;;;5;3;;;;;;;21.67;63.12598;939.5263;;;;
2022/05/16 15:17:28;;;;;;;5.2;3.2;;;;;;;21.5;66.62402;939.5258;;;;
2022/05/16 15:19:52;;;;;;;4.9;3.7;;;;;;;21.43;70.72168;939.6277;;;;
2022/05/16 15:22:22;;;;;;;5.8;3.6;;;;;;;20.76;78.52832;939.7912;;;;
2022/05/16 15:24:47;;;;;;;7.2;3.8;;;;;;;20.54;80.44043;939.8463;;;;
2022/05/16 15:27:17;;;;;;;7.6;4.3;;;;;;;20.66;80.09961;939.8716;;;;
2022/05/16 15:29:42;;;;;;;8.2;3.9;;;;;;;20.78;79.02344;939.8779;;;;
2022/05/16 15:32:07;;;;;;;6.8;3.5;;;;;;;20.71;76.28809;939.9445;;;;
2022/05/16 15:34:39;;;;;;;7.8;4;;;;;;;20.46;81.23145;940.0117;;;;
2022/05/16 15:37:04;;;;;;;7.9;4;;;;;;;20.36;80.56055;940.0549;;;;
2022/05/16 15:39:35;;;;;;;7.3;3.9;;;;;;;20.22;80.63965;940.1545;;;;
2022/05/16 15:42:00;;;;;;;8.6;4.8;;;;;;;20.41;80.9541;940.1379;;;;
2022/05/16 15:44:25;;;;;;;9.2;4.7;;;;;;;20.45;78.96387;940.0839;;;;
2022/05/16 15:46:54;;;;;;;6.7;4.5;;;;;;;20.4;79.71484;940.125;;;;
2022/05/16 15:49:21;;;;;;;6.3;4.1;;;;;;;20.34;77.3916;940.1614;;;;
2022/05/16 15:51:46;;;;;;;7.5;4.4;;;;;;;20.25;79.25586;940.1789;;;;
2022/05/16 15:54:11;;;;;;;5.9;3.3;;;;;;;19.86;74.98535;940.2436;;;;
2022/05/16 15:56:36;;;;;;;4.1;3.1;;;;;;;19.42;75.38965;940.307;;;;
2022/05/16 15:59:07;;;;;;;4.3;2.6;;;;;;;19.01;74.58691;940.2001;;;;
2022/05/16 16:01:35;;;;;;;9.8;3.2;;;;;;;19.04;78.22363;940.3258;;;;
2022/05/16 16:09:10;;;;;;;5.8;2.5;;;;;;;18.55;75.95117;940.3621;;;;
2022/05/16 16:11:35;;;;;;;4.3;3;;;;;;;18.34;79.14453;940.3284;;;;
2022/05/16 16:14:07;;;;;;;5.4;3.5;;;;;;;18.33;80.44531;940.327;;;;
2022/05/16 16:16:41;;;;;;;6.2;3.1;;;;;;;18.38;83.41895;940.3737;;;;
2022/05/16 16:19:06;;;;;;;6.6;3.3;;;;;;;18.54;82.9834;940.5027;;;;
2022/05/16 16:21:34;;;;;;;6.8;3.3;;;;;;;18.68;82.05664;940.5524;;;;